sensor_id;sensor_type;location;lat;lon;timestamp;P1;durP1;ratioP1;P2;durP2;ratioP2
14939;SDS011;11825;51.898;8.202;2023-08-20T00:00:36;20.80;;;18.63;;
14939;SDS011;11825;51.898;8.202;2023-08-20T00:10:55;18.37;;;16.67;;
14939;SDS011;11825;51.898;8.202;2023-08-20T00:21:20;20.60;;;18.60;;
14939;SDS011;11825;51.898;8.202;2023-08-20T00:26:26;18.23;;;16.40;;
14939;SDS011;11825;51.898;8.202;2023-08-20T00:47:20;22.17;;;18.27;;
14939;SDS011;11825;51.898;8.202;2023-08-20T01:02:56;20.27;;;16.53;;
14939;SDS011;11825;51.898;8.202;2023-08-20T01:13:07;17.73;;;15.87;;
14939;SDS011;11825;51.898;8.202;2023-08-20T01:18:09;20.40;;;16.43;;
14939;SDS011;11825;51.898;8.202;2023-08-20T01:23:22;54.17;;;48.93;;
14939;SDS011;11825;51.898;8.202;2023-08-20T01:28:47;17.97;;;16.17;;
14939;SDS011;11825;51.898;8.202;2023-08-20T01:33:50;19.30;;;15.10;;
14939;SDS011;11825;51.898;8.202;2023-08-20T01:38:52;15.30;;;13.57;;
14939;SDS011;11825;51.898;8.202;2023-08-20T01:43:53;17.43;;;15.27;;
14939;SDS011;11825;51.898;8.202;2023-08-20T01:48:55;16.00;;;13.73;;
14939;SDS011;11825;51.898;8.202;2023-08-20T01:53:57;17.90;;;16.17;;
14939;SDS011;11825;51.898;8.202;2023-08-20T01:58:59;14.80;;;13.20;;
14939;SDS011;11825;51.898;8.202;2023-08-20T02:04:00;15.90;;;14.23;;
14939;SDS011;11825;51.898;8.202;2023-08-20T02:09:02;15.13;;;13.53;;
14939;SDS011;11825;51.898;8.202;2023-08-20T02:14:04;15.57;;;14.00;;
14939;SDS011;11825;51.898;8.202;2023-08-20T02:19:06;16.47;;;14.83;;
14939;SDS011;11825;51.898;8.202;2023-08-20T02:24:08;15.03;;;13.63;;
14939;SDS011;11825;51.898;8.202;2023-08-20T02:29:10;15.30;;;13.80;;
14939;SDS011;11825;51.898;8.202;2023-08-20T02:34:12;14.83;;;13.17;;
14939;SDS011;11825;51.898;8.202;2023-08-20T02:39:13;14.20;;;12.77;;
14939;SDS011;11825;51.898;8.202;2023-08-20T02:44:15;14.47;;;13.07;;
14939;SDS011;11825;51.898;8.202;2023-08-20T02:49:17;20.83;;;12.87;;
14939;SDS011;11825;51.898;8.202;2023-08-20T02:54:19;13.47;;;12.10;;
14939;SDS011;11825;51.898;8.202;2023-08-20T02:59:21;13.73;;;11.37;;
14939;SDS011;11825;51.898;8.202;2023-08-20T03:04:22;15.70;;;13.00;;
14939;SDS011;11825;51.898;8.202;2023-08-20T03:09:24;12.73;;;11.40;;
14939;SDS011;11825;51.898;8.202;2023-08-20T03:14:26;14.67;;;13.27;;
14939;SDS011;11825;51.898;8.202;2023-08-20T03:19:33;13.07;;;11.60;;
14939;SDS011;11825;51.898;8.202;2023-08-20T03:24:36;13.03;;;11.83;;
14939;SDS011;11825;51.898;8.202;2023-08-20T03:29:37;13.67;;;12.23;;
14939;SDS011;11825;51.898;8.202;2023-08-20T03:34:39;13.00;;;11.70;;
14939;SDS011;11825;51.898;8.202;2023-08-20T03:39:41;13.60;;;12.00;;
14939;SDS011;11825;51.898;8.202;2023-08-20T03:44:42;14.80;;;13.17;;
14939;SDS011;11825;51.898;8.202;2023-08-20T03:49:44;12.37;;;11.13;;
14939;SDS011;11825;51.898;8.202;2023-08-20T03:54:46;12.97;;;11.60;;
14939;SDS011;11825;51.898;8.202;2023-08-20T03:59:47;12.27;;;11.07;;
14939;SDS011;11825;51.898;8.202;2023-08-20T04:04:49;13.30;;;11.93;;
14939;SDS011;11825;51.898;8.202;2023-08-20T04:09:51;15.07;;;13.47;;
14939;SDS011;11825;51.898;8.202;2023-08-20T04:14:53;17.13;;;12.47;;
14939;SDS011;11825;51.898;8.202;2023-08-20T04:19:54;12.43;;;10.30;;
14939;SDS011;11825;51.898;8.202;2023-08-20T04:24:56;13.17;;;11.93;;
14939;SDS011;11825;51.898;8.202;2023-08-20T04:29:58;12.33;;;11.17;;
14939;SDS011;11825;51.898;8.202;2023-08-20T04:34:59;12.47;;;10.70;;
14939;SDS011;11825;51.898;8.202;2023-08-20T04:40:01;10.77;;;9.67;;
14939;SDS011;11825;51.898;8.202;2023-08-20T04:45:05;13.53;;;11.07;;
14939;SDS011;11825;51.898;8.202;2023-08-20T04:50:08;11.30;;;10.20;;
14939;SDS011;11825;51.898;8.202;2023-08-20T04:55:10;11.83;;;10.60;;
14939;SDS011;11825;51.898;8.202;2023-08-20T05:00:12;11.60;;;9.83;;
14939;SDS011;11825;51.898;8.202;2023-08-20T05:05:14;10.90;;;9.83;;
14939;SDS011;11825;51.898;8.202;2023-08-20T05:10:17;11.87;;;10.57;;
14939;SDS011;11825;51.898;8.202;2023-08-20T05:15:19;11.80;;;9.40;;
14939;SDS011;11825;51.898;8.202;2023-08-20T05:20:21;11.37;;;9.53;;
14939;SDS011;11825;51.898;8.202;2023-08-20T05:25:23;11.53;;;9.50;;
14939;SDS011;11825;51.898;8.202;2023-08-20T05:30:25;11.73;;;9.07;;
14939;SDS011;11825;51.898;8.202;2023-08-20T05:35:27;9.27;;;8.37;;
14939;SDS011;11825;51.898;8.202;2023-08-20T05:40:29;11.23;;;8.50;;
14939;SDS011;11825;51.898;8.202;2023-08-20T05:45:31;9.90;;;7.57;;
14939;SDS011;11825;51.898;8.202;2023-08-20T05:50:32;10.07;;;8.00;;
14939;SDS011;11825;51.898;8.202;2023-08-20T05:55:34;11.20;;;8.70;;
14939;SDS011;11825;51.898;8.202;2023-08-20T06:00:36;10.67;;;8.67;;
14939;SDS011;11825;51.898;8.202;2023-08-20T06:05:37;12.60;;;8.20;;
14939;SDS011;11825;51.898;8.202;2023-08-20T06:10:39;11.13;;;9.13;;
14939;SDS011;11825;51.898;8.202;2023-08-20T06:15:41;9.67;;;7.83;;
14939;SDS011;11825;51.898;8.202;2023-08-20T06:20:43;9.97;;;7.27;;
14939;SDS011;11825;51.898;8.202;2023-08-20T06:25:46;9.80;;;6.93;;
14939;SDS011;11825;51.898;8.202;2023-08-20T06:30:48;9.83;;;7.53;;
14939;SDS011;11825;51.898;8.202;2023-08-20T06:35:51;7.70;;;7.00;;
14939;SDS011;11825;51.898;8.202;2023-08-20T06:40:55;12.37;;;7.67;;
14939;SDS011;11825;51.898;8.202;2023-08-20T06:45:57;7.70;;;6.90;;
14939;SDS011;11825;51.898;8.202;2023-08-20T06:51:11;9.93;;;9.00;;
14939;SDS011;11825;51.898;8.202;2023-08-20T06:56:14;13.20;;;8.70;;
14939;SDS011;11825;51.898;8.202;2023-08-20T07:01:16;9.63;;;8.70;;
14939;SDS011;11825;51.898;8.202;2023-08-20T07:06:20;11.50;;;10.17;;
14939;SDS011;11825;51.898;8.202;2023-08-20T07:11:24;13.57;;;10.57;;
14939;SDS011;11825;51.898;8.202;2023-08-20T07:16:28;13.53;;;10.80;;
14939;SDS011;11825;51.898;8.202;2023-08-20T07:21:31;17.17;;;13.13;;
14939;SDS011;11825;51.898;8.202;2023-08-20T07:26:37;14.13;;;12.73;;
14939;SDS011;11825;51.898;8.202;2023-08-20T07:31:42;19.47;;;16.67;;
14939;SDS011;11825;51.898;8.202;2023-08-20T07:36:43;20.80;;;17.07;;
14939;SDS011;11825;51.898;8.202;2023-08-20T07:41:45;23.57;;;18.90;;
14939;SDS011;11825;51.898;8.202;2023-08-20T07:46:47;20.90;;;18.00;;
14939;SDS011;11825;51.898;8.202;2023-08-20T07:51:51;23.53;;;19.73;;
14939;SDS011;11825;51.898;8.202;2023-08-20T07:56:56;22.93;;;20.50;;
14939;SDS011;11825;51.898;8.202;2023-08-20T08:02:00;21.60;;;19.37;;
14939;SDS011;11825;51.898;8.202;2023-08-20T08:07:04;21.43;;;19.13;;
14939;SDS011;11825;51.898;8.202;2023-08-20T08:12:09;22.80;;;20.50;;
14939;SDS011;11825;51.898;8.202;2023-08-20T08:17:21;22.87;;;20.47;;
14939;SDS011;11825;51.898;8.202;2023-08-20T08:22:23;26.53;;;22.83;;
14939;SDS011;11825;51.898;8.202;2023-08-20T08:27:28;23.70;;;21.20;;
14939;SDS011;11825;51.898;8.202;2023-08-20T08:32:41;23.67;;;21.37;;
14939;SDS011;11825;51.898;8.202;2023-08-20T08:44:03;25.57;;;23.07;;
14939;SDS011;11825;51.898;8.202;2023-08-20T08:49:07;25.57;;;23.07;;
14939;SDS011;11825;51.898;8.202;2023-08-20T09:00:55;22.97;;;20.77;;
14939;SDS011;11825;51.898;8.202;2023-08-20T09:12:34;19.93;;;18.17;;
14939;SDS011;11825;51.898;8.202;2023-08-20T09:24:03;20.60;;;18.80;;
14939;SDS011;11825;51.898;8.202;2023-08-20T09:29:23;14.77;;;13.23;;
14939;SDS011;11825;51.898;8.202;2023-08-20T09:34:56;21.43;;;19.63;;
14939;SDS011;11825;51.898;8.202;2023-08-20T09:40:49;18.33;;;16.60;;
14939;SDS011;11825;51.898;8.202;2023-08-20T09:52:35;11.60;;;10.48;;
14939;SDS011;11825;51.898;8.202;2023-08-20T10:09:20;12.10;;;11.10;;
14939;SDS011;11825;51.898;8.202;2023-08-20T10:14:28;11.40;;;10.27;;
14939;SDS011;11825;51.898;8.202;2023-08-20T10:25:55;8.70;;;8.02;;
14939;SDS011;11825;51.898;8.202;2023-08-20T10:31:48;9.50;;;8.60;;
14939;SDS011;11825;51.898;8.202;2023-08-20T10:36:55;9.00;;;8.30;;
14939;SDS011;11825;51.898;8.202;2023-08-20T10:42:40;8.45;;;7.72;;
14939;SDS011;11825;51.898;8.202;2023-08-20T10:47:54;10.48;;;9.57;;
14939;SDS011;11825;51.898;8.202;2023-08-20T10:58:40;10.60;;;9.65;;
14939;SDS011;11825;51.898;8.202;2023-08-20T11:09:16;9.87;;;8.97;;
14939;SDS011;11825;51.898;8.202;2023-08-20T11:15:41;8.75;;;8.00;;
14939;SDS011;11825;51.898;8.202;2023-08-20T11:20:44;9.68;;;8.88;;
14939;SDS011;11825;51.898;8.202;2023-08-20T11:57:54;8.52;;;7.65;;
14939;SDS011;11825;51.898;8.202;2023-08-20T12:02:58;6.80;;;6.20;;
14939;SDS011;11825;51.898;8.202;2023-08-20T12:21:20;7.13;;;6.53;;
14939;SDS011;11825;51.898;8.202;2023-08-20T12:45:37;6.13;;;5.53;;
14939;SDS011;11825;51.898;8.202;2023-08-20T12:50:41;8.07;;;6.13;;
14939;SDS011;11825;51.898;8.202;2023-08-20T13:13:47;5.82;;;5.32;;
14939;SDS011;11825;51.898;8.202;2023-08-20T13:18:49;5.93;;;5.43;;
14939;SDS011;11825;51.898;8.202;2023-08-20T13:23:51;6.00;;;5.50;;
14939;SDS011;11825;51.898;8.202;2023-08-20T13:28:53;8.25;;;7.55;;
14939;SDS011;11825;51.898;8.202;2023-08-20T13:34:39;9.00;;;7.68;;
14939;SDS011;11825;51.898;8.202;2023-08-20T14:04:53;7.60;;;6.90;;
14939;SDS011;11825;51.898;8.202;2023-08-20T14:16:03;8.88;;;8.20;;
14939;SDS011;11825;51.898;8.202;2023-08-20T14:21:25;8.48;;;7.70;;
14939;SDS011;11825;51.898;8.202;2023-08-20T14:26:48;8.13;;;7.43;;
14939;SDS011;11825;51.898;8.202;2023-08-20T14:31:58;8.38;;;7.57;;
14939;SDS011;11825;51.898;8.202;2023-08-20T14:37:02;7.50;;;6.80;;
14939;SDS011;11825;51.898;8.202;2023-08-20T15:02:16;7.07;;;6.40;;
14939;SDS011;11825;51.898;8.202;2023-08-20T15:12:53;8.65;;;7.90;;
14939;SDS011;11825;51.898;8.202;2023-08-20T15:18:03;9.65;;;8.75;;
14939;SDS011;11825;51.898;8.202;2023-08-20T15:23:10;9.75;;;8.85;;
14939;SDS011;11825;51.898;8.202;2023-08-20T15:28:17;8.75;;;7.95;;
14939;SDS011;11825;51.898;8.202;2023-08-20T15:38:57;8.43;;;7.72;;
14939;SDS011;11825;51.898;8.202;2023-08-20T15:43:59;9.38;;;8.63;;
14939;SDS011;11825;51.898;8.202;2023-08-20T15:49:16;14.40;;;13.17;;
14939;SDS011;11825;51.898;8.202;2023-08-20T16:06:07;8.23;;;7.45;;
14939;SDS011;11825;51.898;8.202;2023-08-20T16:34:25;7.73;;;5.80;;
14939;SDS011;11825;51.898;8.202;2023-08-20T16:51:46;6.30;;;3.93;;
14939;SDS011;11825;51.898;8.202;2023-08-20T17:02:27;6.80;;;4.10;;
14939;SDS011;11825;51.898;8.202;2023-08-20T17:32:03;3.10;;;2.80;;
14939;SDS011;11825;51.898;8.202;2023-08-20T17:37:20;3.17;;;2.83;;
14939;SDS011;11825;51.898;8.202;2023-08-20T18:03:52;3.33;;;1.97;;
14939;SDS011;11825;51.898;8.202;2023-08-20T18:08:55;4.47;;;2.60;;
14939;SDS011;11825;51.898;8.202;2023-08-20T18:14:03;3.30;;;1.77;;
14939;SDS011;11825;51.898;8.202;2023-08-20T18:19:10;2.10;;;1.90;;
14939;SDS011;11825;51.898;8.202;2023-08-20T18:24:28;3.97;;;1.77;;
14939;SDS011;11825;51.898;8.202;2023-08-20T18:36:37;2.70;;;1.20;;
14939;SDS011;11825;51.898;8.202;2023-08-20T18:41:39;1.53;;;1.37;;
14939;SDS011;11825;51.898;8.202;2023-08-20T19:06:22;2.13;;;1.93;;
14939;SDS011;11825;51.898;8.202;2023-08-20T19:11:43;3.03;;;2.27;;
14939;SDS011;11825;51.898;8.202;2023-08-20T19:41:32;4.10;;;2.60;;
14939;SDS011;11825;51.898;8.202;2023-08-20T19:46:39;3.47;;;3.17;;
14939;SDS011;11825;51.898;8.202;2023-08-20T19:51:43;6.07;;;4.23;;
14939;SDS011;11825;51.898;8.202;2023-08-20T19:56:49;4.17;;;2.77;;
14939;SDS011;11825;51.898;8.202;2023-08-20T20:01:56;10.30;;;5.90;;
14939;SDS011;11825;51.898;8.202;2023-08-20T20:06:58;2.00;;;1.90;;
14939;SDS011;11825;51.898;8.202;2023-08-20T20:12:22;3.50;;;1.97;;
14939;SDS011;11825;51.898;8.202;2023-08-20T20:30:42;4.13;;;1.43;;
14939;SDS011;11825;51.898;8.202;2023-08-20T20:36:01;3.70;;;2.30;;
14939;SDS011;11825;51.898;8.202;2023-08-20T20:41:36;3.67;;;2.20;;
14939;SDS011;11825;51.898;8.202;2023-08-20T20:54:02;2.77;;;1.63;;
14939;SDS011;11825;51.898;8.202;2023-08-20T21:24:25;5.87;;;2.50;;
14939;SDS011;11825;51.898;8.202;2023-08-20T21:35:16;3.90;;;1.93;;
14939;SDS011;11825;51.898;8.202;2023-08-20T21:40:24;2.37;;;1.70;;
14939;SDS011;11825;51.898;8.202;2023-08-20T21:45:45;3.23;;;2.00;;
14939;SDS011;11825;51.898;8.202;2023-08-20T21:50:48;4.10;;;2.07;;
14939;SDS011;11825;51.898;8.202;2023-08-20T21:55:53;4.57;;;2.63;;
14939;SDS011;11825;51.898;8.202;2023-08-20T22:00:56;9.87;;;6.50;;
14939;SDS011;11825;51.898;8.202;2023-08-20T22:06:00;1.70;;;1.57;;
14939;SDS011;11825;51.898;8.202;2023-08-20T22:11:06;4.13;;;2.83;;
14939;SDS011;11825;51.898;8.202;2023-08-20T22:16:10;3.47;;;2.73;;
14939;SDS011;11825;51.898;8.202;2023-08-20T22:21:15;6.77;;;2.10;;
14939;SDS011;11825;51.898;8.202;2023-08-20T22:26:21;3.00;;;2.30;;
14939;SDS011;11825;51.898;8.202;2023-08-20T22:31:22;3.53;;;1.80;;
14939;SDS011;11825;51.898;8.202;2023-08-20T22:36:25;3.30;;;2.00;;
14939;SDS011;11825;51.898;8.202;2023-08-20T22:41:29;6.03;;;1.87;;
14939;SDS011;11825;51.898;8.202;2023-08-20T22:46:31;4.13;;;1.47;;
14939;SDS011;11825;51.898;8.202;2023-08-20T22:51:33;4.73;;;2.47;;
14939;SDS011;11825;51.898;8.202;2023-08-20T22:56:35;5.23;;;1.77;;
14939;SDS011;11825;51.898;8.202;2023-08-20T23:01:37;12.63;;;2.30;;
14939;SDS011;11825;51.898;8.202;2023-08-20T23:06:39;2.50;;;1.87;;
14939;SDS011;11825;51.898;8.202;2023-08-20T23:17:13;1.73;;;1.63;;
14939;SDS011;11825;51.898;8.202;2023-08-20T23:22:19;2.20;;;1.37;;
14939;SDS011;11825;51.898;8.202;2023-08-20T23:27:22;3.83;;;1.90;;
14939;SDS011;11825;51.898;8.202;2023-08-20T23:32:23;3.30;;;1.97;;
14939;SDS011;11825;51.898;8.202;2023-08-20T23:37:29;2.17;;;1.73;;
14939;SDS011;11825;51.898;8.202;2023-08-20T23:42:32;6.37;;;1.90;;
14939;SDS011;11825;51.898;8.202;2023-08-20T23:47:36;2.83;;;1.40;;
14939;SDS011;11825;51.898;8.202;2023-08-20T23:52:44;6.27;;;2.43;;
14939;SDS011;11825;51.898;8.202;2023-08-20T23:57:48;4.03;;;2.63;;
